26AR weather

Fly "N" K Airport
Searcy, Arkansas, United States

Public forecast

Using degrees Fahrenheit for public forecast. Weather courtesy of forecast.io.

METAR (pilot weather report)

Closest report is Searcy Municipal Airport, 3.5 nm (6.4 km) E. Retrieved 2019/07/21 03:56 UTC (6 minutes ago):

KSRC 210356Z AUTO 00000KT 10SM CLR 27/26 A2993 RMK AO2 SLP134 T02720256

TAF (pilot weather forecast)

Closest forecast is Little Rock Air Force Base, 24.6 nm (45.5 km) SW. Retrieved 2019/07/20 23:03 UTC (5 hours ago):

TAF TAF KLRF 202300Z 2023/2205 VRB06KT 9999 SCT045 QNH2989INS TX36/2023Z TN25/2111Z